アシガバート の空港の天気 - METARとTAF

アシガバート空港 ( UTAA / ASB ) - トルクメニスタン アシガバート
飛行場実況気象(Metar)
観測時間06/29 06:00 TMT (06/29 01:00 UTC)
風向・風速南南西 2m/s
視程10km以上
天気現象
なし
気温20℃
湿度35%
気圧1007hPa
METARUTAA 290100Z 20003KT 9999 NSC 20/04 Q1007 NOSIG
過去の天気等 Google飛行場航空写真 Wunderground天気予報

過去48時間のMETAR

飛行場予報(TAF)
発表時間: 6/29 03:30 TMT (6/28 22:30 UTC)
予報対象時間: 29日5時 TMT ~ 30日5時 TMT
風向・風速東南東 7m/s
視程5,000m
全天の4割程度の雲 雲底高度 1,520m
29日5時 TMT ~ 29日8時 TMT に一時的に
風向・風速南 6m/s
29日11時 TMT ~ 29日19時 TMT に一時的に
風向・風速東 8m/s 瞬間風速 13m/s
視程3,000m
天気現象低い風塵
TAF UTAA 282230Z 2900/2924 12014KT 5000 SCT050 530009
TEMPO 2900/2903 18012KT
TEMPO 2906/2914 10016G26KT 3000 DRDU